Time;durP1;ratioP1;P1;durP2;ratioP2;P2;SDS_P1;SDS_P2;PMS_P1;PMS_P2;Temp;Humidity;BMP_temperature;BMP_pressure;BME280_temperature;BME280_humidity;BME280_pressure;Samples;Min_cycle;Max_cycle;Signal;HPM_P1;HPM_P2
2022/01/19 00:00:50;;;;;;;15.63;9.10;;;;;;;16.91;47.39;102111.34;4982358;28;20030;-85
2022/01/19 00:03:16;;;;;;;22.30;9.40;;;;;;;17.03;47.11;102105.19;4995948;28;20038;-85
2022/01/19 00:05:41;;;;;;;15.85;9.02;;;;;;;17.01;46.98;102105.31;4996164;28;20038;-85
2022/01/19 00:08:07;;;;;;;16.00;9.27;;;;;;;16.98;47.09;102112.63;4995959;28;20073;-85
2022/01/19 00:10:33;;;;;;;19.80;9.68;;;;;;;16.88;47.31;102104.44;4994715;28;20038;-85
2022/01/19 00:13:00;;;;;;;11.95;8.82;;;;;;;16.78;47.64;102111.28;4995761;28;20032;-85
2022/01/19 00:15:28;;;;;;;14.32;9.13;;;;;;;16.60;48.06;102097.44;4990940;28;20409;-85
2022/01/19 00:17:57;;;;;;;15.50;10.35;;;;;;;16.83;47.70;102093.28;4976338;28;20030;-85
2022/01/19 00:20:24;;;;;;;14.68;10.05;;;;;;;16.84;47.30;102095.84;4976283;28;20494;-84
2022/01/19 00:22:50;;;;;;;15.27;9.27;;;;;;;16.98;47.16;102086.94;4976185;28;20035;-85
2022/01/19 00:25:17;;;;;;;15.63;9.13;;;;;;;16.76;47.51;102099.91;4976211;28;20033;-85
2022/01/19 00:27:42;;;;;;;21.50;10.15;;;;;;;16.70;47.57;102095.03;4976089;28;20062;-85
2022/01/19 00:30:08;;;;;;;18.10;10.02;;;;;;;16.63;47.69;102090.16;4978806;28;20030;-85
2022/01/19 00:32:34;;;;;;;20.23;11.85;;;;;;;16.76;47.30;102098.09;4995250;28;20050;-85
2022/01/19 00:35:00;;;;;;;16.38;10.23;;;;;;;17.02;46.85;102099.06;4994259;28;20033;-85
2022/01/19 00:37:26;;;;;;;17.52;10.93;;;;;;;17.07;46.64;102087.28;4995374;28;20054;-85
2022/01/19 00:39:52;;;;;;;18.73;10.05;;;;;;;17.09;46.54;102072.09;4995533;28;20057;-85
2022/01/19 00:42:18;;;;;;;16.50;10.18;;;;;;;16.96;46.74;102062.31;4995306;28;20447;-85
2022/01/19 00:44:43;;;;;;;17.48;9.98;;;;;;;16.89;47.02;102050.44;4992092;28;20087;-85
2022/01/19 00:47:09;;;;;;;19.40;9.95;;;;;;;16.83;47.17;102030.47;4975729;28;20022;-85
2022/01/19 00:49:34;;;;;;;14.82;9.57;;;;;;;16.86;47.08;102024.09;4975750;28;20034;-86
2022/01/19 00:52:00;;;;;;;15.18;9.70;;;;;;;16.84;47.03;102013.63;5006948;28;20042;-84
2022/01/19 00:54:25;;;;;;;13.95;9.98;;;;;;;16.78;47.22;102013.97;4975791;28;20041;-85
2022/01/19 00:56:50;;;;;;;17.38;10.63;;;;;;;16.77;47.21;101999.03;4975716;28;20026;-85
2022/01/19 00:59:16;;;;;;;19.60;9.90;;;;;;;16.81;47.04;101999.69;4976718;28;20057;-85
2022/01/19 01:01:41;;;;;;;15.77;9.90;;;;;;;16.74;47.22;101988.63;4975438;28;20035;-85
2022/01/19 01:04:06;;;;;;;20.75;10.95;;;;;;;16.73;47.33;101996.72;5006642;28;20030;-85
2022/01/19 01:06:32;;;;;;;17.67;10.07;;;;;;;16.76;47.34;102013.22;4975533;28;20065;-85
2022/01/19 01:08:58;;;;;;;21.30;11.05;;;;;;;16.82;47.17;102022.59;4975344;28;20031;-85
2022/01/19 01:11:29;;;;;;;17.02;10.50;;;;;;;16.69;47.34;102024.41;4975054;28;20034;-85
2022/01/19 01:16:36;;;;;;;21.70;11.60;;;;;;;16.98;46.73;102017.97;4977056;28;20035;-86
2022/01/19 01:19:05;;;;;;;16.95;10.13;;;;;;;17.02;46.64;102008.84;4994691;28;20034;-86
2022/01/19 01:21:31;;;;;;;17.05;10.35;;;;;;;16.80;46.89;102008.56;4993101;28;20138;-86
2022/01/19 01:23:57;;;;;;;14.77;9.50;;;;;;;16.61;47.31;101993.09;4994845;28;20093;-86
2022/01/19 01:26:22;;;;;;;14.73;9.65;;;;;;;16.68;47.34;101982.91;4994695;28;20495;-85
2022/01/19 01:28:47;;;;;;;16.15;9.27;;;;;;;16.84;46.96;101968.50;4994597;28;20028;-86
2022/01/19 01:31:13;;;;;;;16.17;9.93;;;;;;;16.71;46.98;101972.94;4992670;28;20030;-85
2022/01/19 01:33:40;;;;;;;17.65;8.63;;;;;;;16.58;47.49;101962.31;4993058;28;20042;-85
2022/01/19 01:36:06;;;;;;;14.30;8.85;;;;;;;16.48;47.49;101953.28;4994438;28;20442;-85
2022/01/19 01:38:32;;;;;;;12.88;8.05;;;;;;;16.54;47.54;101947.56;4994282;28;20045;-85
2022/01/19 01:40:57;;;;;;;16.40;8.18;;;;;;;16.80;46.95;101945.75;4994654;28;20465;-85
2022/01/19 01:43:23;;;;;;;13.55;8.25;;;;;;;16.85;46.82;101945.47;4994286;28;20026;-85
2022/01/19 01:45:53;;;;;;;16.90;8.32;;;;;;;16.80;46.91;101953.72;4992503;28;20056;-85
2022/01/19 01:48:22;;;;;;;15.30;8.65;;;;;;;16.96;46.48;101960.63;4994200;28;20407;-85
2022/01/19 01:53:34;;;;;;;13.27;7.85;;;;;;;17.14;45.99;101969.97;4994273;28;20065;-85
2022/01/19 01:56:07;;;;;;;15.80;7.72;;;;;;;16.96;46.51;101977.44;4994078;28;20138;-85
2022/01/19 01:58:35;;;;;;;13.38;7.95;;;;;;;16.96;46.66;101976.56;4993964;28;20030;-85
2022/01/19 02:01:01;;;;;;;15.50;7.93;;;;;;;16.83;46.53;101979.22;4994709;28;20035;-85
2022/01/19 02:03:27;;;;;;;13.25;8.05;;;;;;;16.85;46.65;101982.63;4992526;28;20030;-85
2022/01/19 02:08:47;;;;;;;13.52;7.05;;;;;;;16.98;46.63;101978.16;4994136;28;20319;-85
2022/01/19 02:21:45;;;;;;;15.35;7.00;;;;;;;17.06;46.47;101948.41;4992872;28;19929;-85
2022/01/19 02:24:17;;;;;;;10.65;6.43;;;;;;;17.16;46.73;101956.56;4993382;28;20413;-85
2022/01/19 02:27:10;;;;;;;10.18;6.00;;;;;;;17.14;46.50;101953.16;4993726;28;20034;-85
2022/01/19 02:40:32;;;;;;;10.18;5.40;;;;;;;17.28;46.08;101923.84;4973838;28;20456;-86
2022/01/19 02:50:58;;;;;;;7.78;4.38;;;;;;;17.33;45.79;101915.53;4973776;28;20185;-86
2022/01/19 02:53:24;;;;;;;7.55;4.22;;;;;;;17.36;45.51;101910.03;4973526;28;20117;-86
2022/01/19 02:55:49;;;;;;;10.57;4.63;;;;;;;17.37;45.82;101909.91;4973566;28;20027;-86
2022/01/19 02:58:18;;;;;;;8.35;4.30;;;;;;;17.39;45.35;101904.47;4973505;28;20070;-85
2022/01/19 03:08:41;;;;;;;8.30;4.35;;;;;;;17.43;45.18;101880.22;4985304;28;20037;-86
2022/01/19 03:09:01;;;;;;;10.10;4.60;;;;;;;17.41;45.36;101876.00;4973381;28;20393;-86
2022/01/19 03:11:26;;;;;;;10.85;4.43;;;;;;;17.30;45.29;101862.66;4973842;28;20030;-85
2022/01/19 03:13:52;;;;;;;7.15;3.80;;;;;;;17.23;45.48;101865.78;4973175;28;20138;-85
2022/01/19 03:16:18;;;;;;;10.18;4.25;;;;;;;17.31;45.19;101843.97;4974445;28;20428;-85
2022/01/19 03:18:44;;;;;;;8.98;4.53;;;;;;;17.22;45.44;101842.03;4973192;28;20536;-85
2022/01/19 03:21:10;;;;;;;9.60;4.70;;;;;;;17.22;45.39;101834.06;4973055;28;20110;-85
2022/01/19 03:23:35;;;;;;;6.03;4.13;;;;;;;17.32;45.29;101840.38;4973018;28;20031;-85
2022/01/19 03:26:06;;;;;;;7.65;3.88;;;;;;;17.36;45.29;101847.16;4972989;28;20114;-86
2022/01/19 03:28:31;;;;;;;10.10;3.88;;;;;;;17.33;45.11;101836.75;4980777;28;20101;-86
2022/01/19 03:30:57;;;;;;;7.85;4.30;;;;;;;17.20;45.39;101834.16;4990719;28;20473;-86
2022/01/19 03:33:23;;;;;;;10.13;3.90;;;;;;;16.95;45.74;101819.16;4992417;28;20034;-86
2022/01/19 03:35:48;;;;;;;11.52;4.40;;;;;;;17.16;45.36;101811.47;4992509;28;20022;-86
2022/01/19 03:38:14;;;;;;;15.63;5.60;;;;;;;16.89;46.09;101822.28;4992545;28;20389;-86
2022/01/19 03:40:40;;;;;;;9.18;4.85;;;;;;;16.97;45.90;101813.75;4992351;28;20109;-86
2022/01/19 03:43:06;;;;;;;8.18;4.38;;;;;;;17.00;45.85;101817.03;4992434;28;20461;-86
2022/01/19 03:45:33;;;;;;;9.80;4.30;;;;;;;16.72;46.29;101815.47;4992664;28;20018;-86
2022/01/19 03:48:16;;;;;;;9.20;4.32;;;;;;;16.67;46.53;101807.03;4990449;28;20054;-86
2022/01/19 03:50:41;;;;;;;8.90;4.55;;;;;;;16.92;45.97;101811.41;4992303;28;20030;-86
2022/01/19 03:53:06;;;;;;;8.25;4.35;;;;;;;17.14;45.59;101807.19;4992291;28;20458;-87
2022/01/19 03:55:32;;;;;;;6.45;3.67;;;;;;;16.99;45.71;101802.06;4992347;28;20031;-87
2022/01/19 03:57:57;;;;;;;6.63;4.20;;;;;;;16.94;45.84;101804.22;4992377;28;20079;-86
2022/01/19 04:00:23;;;;;;;7.63;3.75;;;;;;;17.01;45.84;101801.97;4992108;28;20022;-87
2022/01/19 04:02:49;;;;;;;7.20;4.03;;;;;;;17.14;45.53;101804.56;4977532;28;20481;-87
2022/01/19 04:05:25;;;;;;;11.07;3.80;;;;;;;17.18;45.64;101783.00;4972759;28;20031;-87
2022/01/19 04:07:50;;;;;;;6.60;3.65;;;;;;;17.20;45.60;101777.56;4972709;28;20031;-87
2022/01/19 04:10:17;;;;;;;7.90;3.78;;;;;;;17.39;45.03;101774.38;4972768;28;20177;-87
2022/01/19 04:12:53;;;;;;;5.50;3.30;;;;;;;17.33;45.11;101781.00;4972523;28;20035;-86
2022/01/19 04:15:20;;;;;;;6.72;3.10;;;;;;;17.39;45.02;101777.88;4972679;28;20019;-86
2022/01/19 04:17:53;;;;;;;11.02;4.03;;;;;;;17.47;44.78;101771.16;4988363;28;20029;-86
2022/01/19 04:20:23;;;;;;;7.10;3.50;;;;;;;17.52;44.76;101767.19;4991737;28;20030;-86
2022/01/19 04:22:49;;;;;;;7.90;3.88;;;;;;;17.45;44.81;101766.78;4990467;28;20022;-86
2022/01/19 04:25:14;;;;;;;7.90;3.92;;;;;;;17.38;44.81;101770.88;4992031;28;20018;-86
2022/01/19 04:27:42;;;;;;;8.20;3.83;;;;;;;17.28;45.21;101775.19;4992065;28;20027;-86
2022/01/19 04:30:11;;;;;;;4.88;3.38;;;;;;;17.21;45.20;101764.19;4992004;28;20563;-86
2022/01/19 04:32:47;;;;;;;5.30;3.45;;;;;;;17.29;45.28;101760.09;4990279;28;20018;-86
2022/01/19 04:35:19;;;;;;;6.45;3.30;;;;;;;17.38;45.02;101768.22;4992048;28;20027;-86
2022/01/19 05:08:11;;;;;;;5.45;3.05;;;;;;;17.38;44.65;101754.13;4975666;28;20488;-86
2022/01/19 05:15:55;;;;;;;6.38;2.88;;;;;;;17.21;45.27;101753.56;4972972;28;20038;-86
2022/01/19 05:18:21;;;;;;;5.97;2.83;;;;;;;17.05;45.76;101761.81;4973092;28;20453;-85
2022/01/19 05:20:47;;;;;;;8.10;3.30;;;;;;;17.21;45.32;101763.34;4982787;28;20116;-85
2022/01/19 05:23:14;;;;;;;7.00;3.10;;;;;;;17.02;45.56;101759.41;4994474;28;20037;-85
2022/01/19 05:25:40;;;;;;;6.38;3.05;;;;;;;17.23;45.34;101748.97;4984098;28;20062;-85
2022/01/19 05:28:05;;;;;;;4.68;2.90;;;;;;;17.22;45.14;101757.09;4975233;28;20062;-85
2022/01/19 05:30:31;;;;;;;7.75;3.05;;;;;;;17.35;45.04;101760.47;4975166;28;20034;-85
2022/01/19 05:32:56;;;;;;;8.15;3.15;;;;;;;17.42;44.96;101745.81;4974933;28;20042;-85
2022/01/19 05:35:21;;;;;;;3.92;2.80;;;;;;;17.38;44.95;101728.41;4975792;28;20027;-85
2022/01/19 05:37:47;;;;;;;5.25;3.30;;;;;;;17.26;44.77;101702.81;4974758;28;20448;-85
2022/01/19 05:40:16;;;;;;;6.30;3.38;;;;;;;17.25;45.25;101693.97;4973639;28;20034;-85
2022/01/19 05:42:42;;;;;;;5.97;3.22;;;;;;;17.10;45.31;101708.41;5006179;28;20400;-85
2022/01/19 05:45:08;;;;;;;7.47;3.47;;;;;;;17.21;45.40;101697.81;4974875;28;20403;-85
2022/01/19 05:47:33;;;;;;;7.63;3.45;;;;;;;17.09;45.41;101669.56;4974798;28;20034;-85
2022/01/19 05:49:59;;;;;;;7.80;3.67;;;;;;;17.14;45.39;101682.47;4974653;28;20033;-85
2022/01/19 05:52:24;;;;;;;7.07;3.53;;;;;;;16.90;45.67;101677.19;4992689;28;20038;-85
2022/01/19 05:54:50;;;;;;;5.78;3.00;;;;;;;16.90;46.01;101677.19;4994178;28;20030;-85
2022/01/19 05:57:16;;;;;;;5.70;3.60;;;;;;;16.91;45.83;101668.28;4993879;28;20038;-85
2022/01/19 05:59:41;;;;;;;6.28;3.60;;;;;;;17.08;45.58;101667.88;4994048;28;20019;-85
2022/01/19 06:02:07;;;;;;;5.60;2.92;;;;;;;17.15;45.43;101671.75;4992511;28;20041;-85
2022/01/19 06:04:32;;;;;;;4.38;3.00;;;;;;;17.11;45.51;101677.41;4993891;28;20104;-85
2022/01/19 06:06:58;;;;;;;7.15;3.42;;;;;;;17.06;45.49;101685.69;4991984;28;20022;-85
2022/01/19 06:09:35;;;;;;;7.97;3.50;;;;;;;17.03;45.52;101688.59;4993743;28;20038;-85
2022/01/19 06:12:04;;;;;;;6.53;2.78;;;;;;;17.11;45.27;101675.59;4993661;28;20044;-85
2022/01/19 06:14:31;;;;;;;5.18;3.22;;;;;;;16.96;45.39;101677.59;4993753;28;20022;-85
2022/01/19 06:16:57;;;;;;;6.78;3.40;;;;;;;16.77;45.78;101664.00;4993694;28;20220;-85
2022/01/19 06:19:22;;;;;;;6.95;3.53;;;;;;;16.60;46.32;101663.41;4993690;28;20162;-84
2022/01/19 06:21:47;;;;;;;5.20;3.67;;;;;;;16.57;46.38;101665.47;4979641;28;20030;-84
2022/01/19 06:24:13;;;;;;;9.95;4.30;;;;;;;16.49;46.26;101652.75;4974269;28;20031;-83
2022/01/19 06:26:39;;;;;;;12.15;5.47;;;;;;;16.45;46.49;101660.09;4973929;28;20033;-83
2022/01/19 06:29:04;;;;;;;7.43;3.42;;;;;;;16.58;46.37;101660.03;4974052;28;20335;-83
2022/01/19 06:31:30;;;;;;;8.25;3.63;;;;;;;16.65;46.15;101650.66;4978997;28;20038;-83
2022/01/19 06:33:56;;;;;;;7.95;3.70;;;;;;;16.54;46.26;101650.59;4993150;28;20022;-82
2022/01/19 06:36:21;;;;;;;4.93;3.63;;;;;;;16.59;46.21;101644.97;4993399;28;20473;-81
2022/01/19 06:38:46;;;;;;;6.97;4.15;;;;;;;16.52;46.44;101649.88;4993206;28;20035;-81
2022/01/19 06:41:12;;;;;;;8.15;3.85;;;;;;;16.40;46.76;101645.47;4993284;28;20026;-80
2022/01/19 06:43:38;;;;;;;6.82;4.10;;;;;;;16.30;46.76;101629.38;4992964;28;20030;-87
2022/01/19 06:46:04;;;;;;;7.20;3.75;;;;;;;16.41;46.56;101620.63;4991803;28;20501;-93
2022/01/19 06:48:29;;;;;;;5.93;3.70;;;;;;;16.45;46.68;101633.56;4989306;28;20109;-84
2022/01/19 06:50:55;;;;;;;6.97;4.55;;;;;;;16.52;46.21;101627.81;4991221;28;20038;-87
2022/01/19 06:53:20;;;;;;;6.10;4.10;;;;;;;16.39;46.46;101622.56;4992750;28;20038;-85
2022/01/19 06:55:46;;;;;;;6.53;3.80;;;;;;;16.41;46.56;101615.34;4992869;28;20034;-89
2022/01/19 06:58:12;;;;;;;8.43;4.03;;;;;;;16.40;46.50;101605.72;4992953;28;20030;-85
2022/01/19 07:00:37;;;;;;;8.80;3.67;;;;;;;16.35;46.44;101608.72;4992812;28;20034;-85
2022/01/19 07:03:03;;;;;;;7.75;3.78;;;;;;;16.36;46.48;101617.50;4975401;28;20035;-85
2022/01/19 07:05:28;;;;;;;5.35;3.97;;;;;;;16.38;46.64;101624.38;4973311;28;20418;-85
2022/01/19 07:07:56;;;;;;;8.27;4.07;;;;;;;16.33;46.48;101623.00;4978472;28;20572;-86
2022/01/19 07:10:22;;;;;;;9.82;3.78;;;;;;;16.33;46.87;101633.63;4991983;28;20034;-84
2022/01/19 07:12:47;;;;;;;10.95;3.92;;;;;;;16.37;47.57;101629.78;4992485;28;20029;-81
2022/01/19 07:15:13;;;;;;;24.35;4.15;;;;;;;16.65;47.91;101633.91;4994811;28;20086;-86
2022/01/19 07:17:38;;;;;;;16.80;5.40;;;;;;;16.86;47.64;101631.47;4996389;28;20023;-88
2022/01/19 07:20:05;;;;;;;12.57;4.40;;;;;;;16.93;47.66;101622.13;4994491;28;20385;-88
2022/01/19 07:22:30;;;;;;;9.95;3.92;;;;;;;16.96;48.24;101627.19;4992264;28;20030;-86
2022/01/19 07:24:58;;;;;;;13.45;4.78;;;;;;;16.96;49.21;101621.91;4991844;28;20396;-81
2022/01/19 07:27:24;;;;;;;12.85;3.72;;;;;;;16.87;50.48;101617.28;4992032;28;20097;-84
2022/01/19 07:29:49;;;;;;;7.20;3.78;;;;;;;16.98;50.83;101613.78;4990414;28;20098;-83
2022/01/19 07:32:15;;;;;;;6.78;3.55;;;;;;;17.16;50.76;101614.19;4982089;28;20531;-82
2022/01/19 07:34:40;;;;;;;8.55;3.15;;;;;;;17.57;50.09;101616.28;4985825;28;20022;-85
2022/01/19 07:37:06;;;;;;;8.00;3.92;;;;;;;17.53;49.48;101603.38;4994015;28;20049;-90
2022/01/19 07:39:31;;;;;;;8.77;4.32;;;;;;;17.45;49.25;101601.34;4994812;28;20358;-95
2022/01/19 07:44:30;;;;;;;7.43;3.70;;;;;;;17.68;48.38;101586.25;4997633;28;20042;-96
2022/01/19 07:46:56;;;;;;;16.60;4.32;;;;;;;17.87;48.01;101598.09;4996345;28;20034;-90
2022/01/19 07:49:22;;;;;;;10.73;4.57;;;;;;;17.85;47.91;101592.91;4975449;28;20460;-90
2022/01/19 07:51:47;;;;;;;7.38;4.47;;;;;;;17.86;47.54;101585.78;4989920;28;20033;-90
2022/01/19 07:54:13;;;;;;;8.77;4.47;;;;;;;17.78;47.88;101579.25;4991060;28;20058;-93
2022/01/19 07:56:38;;;;;;;9.55;5.25;;;;;;;17.86;47.61;101565.38;4991270;28;20022;-89
2022/01/19 07:59:04;;;;;;;7.78;3.97;;;;;;;17.74;47.68;101574.31;4991227;28;20026;-86
2022/01/19 08:01:31;;;;;;;8.38;4.72;;;;;;;17.77;47.30;101580.22;4990490;28;20030;-90
2022/01/19 08:03:58;;;;;;;8.40;4.35;;;;;;;17.72;47.67;101592.19;4991846;28;20118;-88
2022/01/19 08:06:24;;;;;;;10.25;4.03;;;;;;;17.76;46.93;101583.81;4991224;28;20022;-87
2022/01/19 08:08:49;;;;;;;8.88;4.22;;;;;;;17.40;47.93;101577.81;4990872;28;20404;-83
2022/01/19 08:11:14;;;;;;;6.32;4.25;;;;;;;17.69;47.34;101577.31;4991166;28;20400;-84
2022/01/19 08:13:40;;;;;;;11.13;3.90;;;;;;;17.78;47.17;101575.75;4991412;28;20550;-92
2022/01/19 08:16:05;;;;;;;6.95;3.28;;;;;;;17.73;47.36;101573.47;4991425;28;20029;-91
2022/01/19 08:18:31;;;;;;;6.78;3.80;;;;;;;17.74;47.76;101563.69;4991850;28;20034;-90
2022/01/19 08:20:56;;;;;;;6.63;3.97;;;;;;;17.77;47.81;101558.97;4993182;28;20030;-84
2022/01/19 08:23:22;;;;;;;4.43;3.70;;;;;;;17.85;47.57;101555.69;4994169;28;20034;-90
2022/01/19 08:25:47;;;;;;;13.95;5.30;;;;;;;18.01;47.48;101558.00;4995372;28;20174;-90
2022/01/19 08:28:12;;;;;;;16.00;4.88;;;;;;;17.99;47.31;101557.25;4994745;28;20037;-86
2022/01/19 08:30:38;;;;;;;5.43;3.55;;;;;;;17.83;48.08;101561.16;4993324;28;20392;-92
2022/01/19 08:33:03;;;;;;;6.40;3.83;;;;;;;17.82;48.14;101556.78;4993599;28;20023;-91
2022/01/19 08:35:29;;;;;;;6.15;3.45;;;;;;;17.95;48.24;101555.81;4995905;28;20105;-95
2022/01/19 08:37:54;;;;;;;6.75;3.10;;;;;;;18.02;49.45;101559.66;4995644;28;20385;-86
2022/01/19 08:40:26;;;;;;;6.53;3.85;;;;;;;18.09;47.70;101554.69;4995419;28;20444;-92
2022/01/19 08:42:52;;;;;;;7.47;3.40;;;;;;;18.05;48.20;101556.78;4994674;28;20030;-90
2022/01/19 08:45:17;;;;;;;8.27;4.25;;;;;;;18.10;48.07;101569.69;4994127;28;20396;-88
2022/01/19 08:47:42;;;;;;;6.20;3.42;;;;;;;18.21;47.84;101581.13;4995050;28;20077;-88
2022/01/19 08:50:11;;;;;;;9.25;4.60;;;;;;;18.39;47.46;101581.41;4994844;28;20129;-88
2022/01/19 08:52:37;;;;;;;6.40;3.78;;;;;;;18.47;47.32;101578.13;4995137;28;20097;-88
2022/01/19 08:55:03;;;;;;;4.88;3.50;;;;;;;18.47;47.04;101582.63;4994974;28;20030;-88
2022/01/19 08:57:29;;;;;;;7.13;4.18;;;;;;;18.46;46.91;101573.78;4994609;28;20045;-87
2022/01/19 08:59:54;;;;;;;5.07;3.67;;;;;;;18.44;47.19;101573.06;4995058;28;20022;-88
2022/01/19 09:02:20;;;;;;;8.27;3.78;;;;;;;18.46;47.26;101576.44;4995015;28;20026;-88
2022/01/19 09:04:46;;;;;;;7.80;3.58;;;;;;;18.54;47.42;101579.31;4994989;28;20053;-88
2022/01/19 09:07:11;;;;;;;7.80;3.67;;;;;;;18.56;47.27;101571.19;4995062;28;20065;-88
2022/01/19 09:09:37;;;;;;;11.93;3.78;;;;;;;18.49;46.87;101578.84;4994858;28;20023;-89
2022/01/19 09:12:03;;;;;;;8.32;3.88;;;;;;;18.88;46.50;101575.66;4994521;28;20062;-88
2022/01/19 09:14:30;;;;;;;5.93;3.05;;;;;;;18.94;46.17;101576.00;4994747;28;20463;-88
2022/01/19 09:16:55;;;;;;;6.53;3.80;;;;;;;19.10;46.06;101574.69;4994791;28;20034;-88
2022/01/19 09:19:21;;;;;;;14.77;3.83;;;;;;;19.05;46.12;101575.06;4994819;28;20535;-88
2022/01/19 09:21:48;;;;;;;8.00;3.40;;;;;;;19.01;46.16;101571.81;4993819;28;20041;-88
2022/01/19 09:24:13;;;;;;;7.07;3.28;;;;;;;19.08;45.90;101568.66;4994422;28;20113;-88
2022/01/19 09:26:39;;;;;;;10.30;3.83;;;;;;;19.04;45.85;101570.72;4994128;28;20576;-89
2022/01/19 09:29:04;;;;;;;7.20;3.17;;;;;;;19.09;45.98;101568.50;4994523;28;20065;-89
2022/01/19 09:31:32;;;;;;;9.73;3.25;;;;;;;19.08;46.10;101571.31;4993453;28;20026;-89
2022/01/19 09:34:08;;;;;;;7.05;3.45;;;;;;;18.83;46.45;101573.38;4993694;28;20065;-89
2022/01/19 09:36:36;;;;;;;12.32;3.95;;;;;;;18.81;46.64;101580.66;4992385;28;20519;-89
2022/01/19 09:39:04;;;;;;;7.43;3.60;;;;;;;18.79;46.83;101582.56;4993413;28;20041;-89
2022/01/19 09:41:30;;;;;;;8.65;3.40;;;;;;;18.91;46.28;101578.91;4993715;28;20030;-89
2022/01/19 09:43:56;;;;;;;5.70;2.97;;;;;;;18.86;46.79;101573.16;4994167;28;20034;-89
2022/01/19 09:46:22;;;;;;;5.00;2.88;;;;;;;18.85;46.86;101571.44;4994421;28;20037;-89
2022/01/19 09:48:47;;;;;;;6.75;2.97;;;;;;;18.97;46.85;101578.38;4994133;28;20027;-91
2022/01/19 09:51:14;;;;;;;3.97;3.03;;;;;;;18.93;46.88;101584.09;4994064;28;20532;-90
2022/01/19 09:53:41;;;;;;;9.18;3.30;;;;;;;18.97;47.10;101590.84;4994037;28;20030;-91
2022/01/19 09:56:06;;;;;;;5.90;2.80;;;;;;;18.97;47.24;101597.00;4993712;28;20026;-90
2022/01/19 09:58:31;;;;;;;4.97;2.92;;;;;;;18.90;47.23;101601.19;4976540;28;20033;-90
2022/01/19 10:00:57;;;;;;;6.05;2.42;;;;;;;18.90;47.25;101601.19;4976597;28;20089;-90
2022/01/19 10:03:31;;;;;;;4.63;2.75;;;;;;;18.86;47.67;101598.88;4993655;28;20088;-90
2022/01/19 10:06:07;;;;;;;5.45;2.63;;;;;;;18.94;47.62;101602.59;4993764;28;20093;-90
2022/01/19 10:08:54;;;;;;;6.15;2.78;;;;;;;18.99;47.41;101584.41;4993682;28;20026;-90
2022/01/19 10:17:12;;;;;;;5.22;2.30;;;;;;;19.11;47.21;101581.69;4993728;28;20491;-90
2022/01/19 10:19:50;;;;;;;5.05;2.55;;;;;;;19.16;47.18;101590.13;4993356;28;20038;-91
2022/01/19 10:22:15;;;;;;;5.38;2.72;;;;;;;19.19;47.12;101600.50;4993432;28;20022;-90
2022/01/19 10:24:51;;;;;;;4.05;2.20;;;;;;;19.17;47.33;101603.31;4992944;28;20030;-90
2022/01/19 10:27:39;;;;;;;4.20;2.35;;;;;;;19.14;47.31;101610.72;4993562;28;20029;-90
2022/01/19 10:30:04;;;;;;;4.32;2.30;;;;;;;19.18;47.42;101620.13;4993335;28;20392;-90
2022/01/19 10:32:36;;;;;;;5.15;2.17;;;;;;;19.35;46.86;101616.88;4992475;28;20105;-91
2022/01/19 10:35:13;;;;;;;;;;;;;;;19.45;46.70;101618.72;4993855;28;20019;-91
2022/01/19 10:37:39;;;;;;;4.72;2.10;;;;;;;19.46;46.85;101609.78;4993380;28;20327;-91
2022/01/19 10:40:05;;;;;;;5.88;2.35;;;;;;;19.58;46.61;101617.53;4975773;28;20089;-91
2022/01/19 10:42:31;;;;;;;6.55;2.03;;;;;;;19.56;46.50;101615.97;4992672;28;20038;-89
2022/01/19 10:44:58;;;;;;;6.25;2.50;;;;;;;19.63;46.52;101619.81;4993008;28;20058;-90
2022/01/19 10:47:38;;;;;;;3.90;1.90;;;;;;;19.47;46.93;101619.44;4992905;28;20034;-90
2022/01/19 10:50:05;;;;;;;4.28;2.17;;;;;;;19.37;47.24;101622.91;4992681;28;20081;-91
2022/01/19 10:52:34;;;;;;;3.65;1.90;;;;;;;19.50;46.94;101619.19;4993051;28;20028;-90
2022/01/19 10:55:04;;;;;;;4.35;2.20;;;;;;;19.61;46.90;101621.78;4993444;28;20038;-89
2022/01/19 10:57:32;;;;;;;3.30;1.83;;;;;;;19.66;46.75;101619.53;4993055;28;20026;-91
2022/01/19 11:00:30;;;;;;;3.63;2.20;;;;;;;19.70;46.74;101617.44;4992887;28;20023;-90
2022/01/19 11:03:12;;;;;;;3.25;1.90;;;;;;;19.68;46.80;101612.25;4992179;28;20101;-90
2022/01/19 11:05:41;;;;;;;4.32;2.70;;;;;;;19.81;46.85;101612.91;4991537;28;20054;-90
2022/01/19 11:08:06;;;;;;;6.72;2.00;;;;;;;19.88;47.47;101613.19;4988308;28;20037;-86
2022/01/19 11:10:33;;;;;;;7.05;2.53;;;;;;;19.88;47.28;101607.84;4992030;28;20022;-88
2022/01/19 11:12:59;;;;;;;3.90;2.63;;;;;;;19.97;47.61;101606.22;4974224;28;20018;-87
2022/01/19 11:15:24;;;;;;;8.13;3.35;;;;;;;19.97;47.54;101587.56;4991700;28;20038;-87
2022/01/19 11:17:50;;;;;;;5.93;2.95;;;;;;;20.04;47.46;101580.66;4991455;28;20025;-87
2022/01/19 11:20:20;;;;;;;5.30;3.10;;;;;;;20.09;47.24;101578.44;4991893;28;21728;-87
2022/01/19 11:22:57;;;;;;;4.75;2.85;;;;;;;20.24;47.14;101586.03;4991688;28;20064;-92
2022/01/19 11:25:31;;;;;;;8.15;2.88;;;;;;;20.36;47.14;101576.94;4991616;28;20046;-91
2022/01/19 11:27:58;;;;;;;5.88;2.40;;;;;;;20.43;47.14;101570.06;4991861;28;20292;-92
2022/01/19 11:30:27;;;;;;;4.68;2.53;;;;;;;20.50;47.17;101549.00;4991895;28;20055;-91
2022/01/19 11:33:16;;;;;;;5.47;2.40;;;;;;;20.65;46.88;101536.09;4991427;28;20112;-91
2022/01/19 11:35:44;;;;;;;8.60;3.00;;;;;;;20.90;46.33;101530.13;4988801;28;20061;-92
2022/01/19 11:38:47;;;;;;;10.52;2.40;;;;;;;20.91;46.63;101537.19;4991816;28;20101;-92
2022/01/19 11:41:13;;;;;;;6.93;2.22;;;;;;;21.03;46.38;101542.31;4927724;29;20086;-92
2022/01/19 11:43:49;;;;;;;10.77;2.80;;;;;;;21.18;46.20;101543.56;4976267;28;20488;-90
2022/01/19 11:46:27;;;;;;;12.98;2.95;;;;;;;21.15;46.18;101533.19;4991500;28;20034;-91
2022/01/19 11:48:53;;;;;;;5.53;2.63;;;;;;;21.50;45.69;101520.94;4987841;28;20085;-90
2022/01/19 11:51:24;;;;;;;6.82;2.30;;;;;;;21.60;45.32;101516.38;4992124;28;20022;-91
2022/01/19 11:54:02;;;;;;;6.20;2.40;;;;;;;21.98;44.68;101517.97;4992113;28;20026;-89
2022/01/19 11:56:28;;;;;;;6.40;2.38;;;;;;;22.01;44.74;101507.97;4996248;28;20018;-91
2022/01/19 11:59:06;;;;;;;8.38;2.58;;;;;;;22.22;44.37;101518.38;4996116;28;20026;-91
2022/01/19 12:01:31;;;;;;;9.32;2.72;;;;;;;22.27;44.13;101516.94;4996209;28;20480;-91
2022/01/19 12:04:19;;;;;;;5.25;1.85;;;;;;;22.21;44.47;101511.34;4995732;28;20076;-91
2022/01/19 12:06:46;;;;;;;7.97;2.30;;;;;;;22.40;43.95;101505.00;4995382;28;20050;-92
2022/01/19 12:09:13;;;;;;;6.85;1.83;;;;;;;22.51;43.80;101497.56;4995002;28;20069;-92
2022/01/19 12:11:45;;;;;;;5.13;2.00;;;;;;;22.86;43.24;101503.81;4995357;28;20034;-92
2022/01/19 12:19:05;;;;;;;5.22;1.50;;;;;;;22.73;44.19;101495.38;4995034;28;20030;-92
2022/01/19 12:21:31;;;;;;;4.53;1.35;;;;;;;22.64;44.42;101483.78;4994996;28;20408;-91
2022/01/19 12:24:12;;;;;;;4.82;1.77;;;;;;;22.49;45.18;101474.63;4994456;28;20042;-92
2022/01/19 12:26:48;;;;;;;;;;;;;;;22.58;45.40;101484.41;4995267;28;20037;-92
2022/01/19 12:29:33;;;;;;;5.10;1.92;;;;;;;22.48;45.23;101489.00;4994910;28;19917;-92
2022/01/19 12:32:01;;;;;;;4.97;2.20;;;;;;;22.26;44.96;101485.00;4994708;28;20037;-91
2022/01/19 12:34:41;;;;;;;7.55;2.35;;;;;;;22.21;45.73;101485.41;4994765;28;20034;-91
2022/01/19 12:37:06;;;;;;;9.30;2.03;;;;;;;22.18;45.98;101477.72;4994559;28;20401;-91
2022/01/19 12:39:52;;;;;;;6.55;2.03;;;;;;;22.19;46.42;101474.03;4994252;28;20022;-93
2022/01/19 12:42:24;;;;;;;4.75;1.30;;;;;;;22.19;46.94;101479.38;4985368;28;20042;-89
2022/01/19 12:44:51;;;;;;;;;;;;;;;22.23;46.90;101485.25;4995151;28;20098;-89
2022/01/19 12:47:28;;;;;;;9.88;1.48;;;;;;;22.32;46.42;101473.69;4994323;28;19910;-90
2022/01/19 12:50:08;;;;;;;10.32;1.80;;;;;;;22.32;46.49;101479.84;4994434;28;20416;-90
2022/01/19 12:52:40;;;;;;;4.47;1.65;;;;;;;22.10;46.52;101475.81;4994112;28;20033;-90
2022/01/19 12:55:12;;;;;;;8.05;2.05;;;;;;;22.13;46.08;101469.28;4994818;28;20077;-90
2022/01/19 12:57:38;;;;;;;3.47;1.75;;;;;;;22.08;45.57;101472.44;4993646;28;20105;-90